createdAt,value
2022-11-14T00:00:48.872Z,506.71
2022-11-14T00:01:44.610Z,504.79
2022-11-14T00:02:39.782Z,502.13
2022-11-14T00:03:35.130Z,501.00
2022-11-14T00:04:30.865Z,504.03
2022-11-14T00:05:26.058Z,502.89
2022-11-14T00:06:21.285Z,502.13
2022-11-14T00:07:17.644Z,498.01
2022-11-14T00:08:12.722Z,499.50
2022-11-14T00:09:08.574Z,496.16
2022-11-14T00:10:03.741Z,493.58
2022-11-14T00:10:58.913Z,492.49
2022-11-14T00:11:54.224Z,494.68
2022-11-14T00:12:49.412Z,497.64
2022-11-14T00:13:45.119Z,496.16
2022-11-14T00:14:40.337Z,496.52
2022-11-14T00:15:35.491Z,497.27
2022-11-14T00:16:32.041Z,491.04
2022-11-14T00:17:27.220Z,492.86
2022-11-14T00:18:22.964Z,486.03
2022-11-14T00:19:18.126Z,486.03
2022-11-14T00:20:13.295Z,485.68
2022-11-14T00:21:09.188Z,487.10
2022-11-14T00:22:04.367Z,484.62
2022-11-14T00:23:00.237Z,479.74
2022-11-14T00:23:55.248Z,481.47
2022-11-14T00:24:50.673Z,481.82
2022-11-14T00:25:46.551Z,483.21
2022-11-14T00:26:41.856Z,481.82
2022-11-14T00:27:37.283Z,479.39
2022-11-14T00:28:32.757Z,483.56
2022-11-14T00:29:27.622Z,484.27
2022-11-14T00:30:22.745Z,484.97
2022-11-14T00:31:17.762Z,490.68
2022-11-14T00:32:16.200Z,491.77
2022-11-14T00:33:14.706Z,493.22
2022-11-14T00:34:07.622Z,494.32
2022-11-14T00:35:01.851Z,492.49
2022-11-14T00:35:56.903Z,486.74
2022-11-14T00:36:51.897Z,491.40
2022-11-14T00:37:46.967Z,493.22
2022-11-14T00:38:41.975Z,495.05
2022-11-14T00:39:37.070Z,490.32
2022-11-14T00:40:32.266Z,492.86
2022-11-14T00:41:27.308Z,498.01
2022-11-14T00:42:22.374Z,498.01
2022-11-14T00:43:17.357Z,494.68
2022-11-14T00:44:12.462Z,494.32
2022-11-14T00:45:07.494Z,502.13
2022-11-14T00:46:02.514Z,501.00
2022-11-14T00:46:57.578Z,498.75
2022-11-14T00:47:52.582Z,497.64
2022-11-14T00:48:47.645Z,504.79
2022-11-14T00:49:42.857Z,501.76
2022-11-14T00:50:37.872Z,504.41
2022-11-14T00:51:33.070Z,509.81
2022-11-14T00:52:28.224Z,505.94
2022-11-14T00:53:23.284Z,508.64
2022-11-14T00:54:18.270Z,508.64
2022-11-14T00:55:13.347Z,509.03
2022-11-14T00:56:08.363Z,510.98
2022-11-14T00:57:03.396Z,508.26
2022-11-14T00:57:58.406Z,509.42
2022-11-14T00:58:53.453Z,511.77
2022-11-14T00:59:48.456Z,512.55
2022-11-14T01:00:43.827Z,517.33
2022-11-14T01:01:38.605Z,517.33
2022-11-14T01:02:33.635Z,519.34
2022-11-14T01:03:28.779Z,521.78
2022-11-14T01:04:24.002Z,524.65
2022-11-14T01:05:19.088Z,526.72
2022-11-14T01:06:14.279Z,522.60
2022-11-14T01:07:09.411Z,522.60
2022-11-14T01:08:04.732Z,525.07
2022-11-14T01:08:59.798Z,523.83
2022-11-14T01:09:55.712Z,525.07
2022-11-14T01:10:50.227Z,520.96
2022-11-14T01:11:45.408Z,520.96
2022-11-14T01:12:40.701Z,516.53
2022-11-14T01:13:35.745Z,516.12
2022-11-14T01:14:30.892Z,513.74
2022-11-14T01:15:26.071Z,513.34
2022-11-14T01:16:21.382Z,511.38
2022-11-14T01:17:17.421Z,502.89
2022-11-14T01:18:11.769Z,502.13
2022-11-14T01:19:06.928Z,498.75
2022-11-14T01:20:02.078Z,497.64
2022-11-14T01:20:57.391Z,495.42
2022-11-14T01:21:52.537Z,493.58
2022-11-14T01:22:47.729Z,495.05
2022-11-14T01:23:42.996Z,497.27
2022-11-14T01:24:38.430Z,498.01
2022-11-14T01:25:33.434Z,491.77
2022-11-14T01:26:28.764Z,489.60
2022-11-14T01:27:23.794Z,491.04
2022-11-14T01:28:19.064Z,491.04
2022-11-14T01:29:14.506Z,491.77
2022-11-14T01:30:09.535Z,488.17
2022-11-14T01:31:04.843Z,492.49
2022-11-14T01:32:00.010Z,492.49
2022-11-14T01:32:55.147Z,488.88
2022-11-14T01:33:50.556Z,488.52
2022-11-14T01:34:48.415Z,489.96
2022-11-14T01:35:43.491Z,487.45
2022-11-14T01:36:38.611Z,493.95
2022-11-14T01:37:33.781Z,496.16
2022-11-14T01:38:29.519Z,493.95
2022-11-14T01:39:24.358Z,492.49
2022-11-14T01:40:19.515Z,484.62
2022-11-14T01:41:14.528Z,487.10
2022-11-14T01:42:09.539Z,492.49
2022-11-14T01:43:04.570Z,490.32
2022-11-14T01:43:59.538Z,491.77
2022-11-14T01:44:54.690Z,498.75
2022-11-14T01:45:49.689Z,499.88
2022-11-14T01:46:44.719Z,502.51
2022-11-14T01:47:39.695Z,505.56
2022-11-14T01:48:34.742Z,505.18
2022-11-14T01:49:29.757Z,508.64
2022-11-14T01:50:24.943Z,510.20
2022-11-14T01:51:21.582Z,509.81
2022-11-14T01:52:16.610Z,513.74
2022-11-14T01:53:11.599Z,519.74
2022-11-14T01:54:06.666Z,520.15
2022-11-14T01:55:01.851Z,527.56
2022-11-14T01:55:56.982Z,525.48
2022-11-14T01:56:52.142Z,523.01
2022-11-14T01:57:47.273Z,527.14
2022-11-14T01:58:42.175Z,525.48
2022-11-14T01:59:37.345Z,528.81
2022-11-14T02:00:32.227Z,525.07
2022-11-14T02:01:27.367Z,525.89
2022-11-14T02:02:22.381Z,532.19
2022-11-14T02:03:17.464Z,527.98
2022-11-14T02:04:15.269Z,524.24
2022-11-14T02:05:07.509Z,522.19
2022-11-14T02:06:02.684Z,523.01
2022-11-14T02:06:57.872Z,523.83
2022-11-14T02:07:55.769Z,521.78
2022-11-14T02:08:50.675Z,528.39
2022-11-14T02:09:45.791Z,521.37
2022-11-14T02:10:40.822Z,517.33
2022-11-14T02:11:35.972Z,519.34
2022-11-14T02:12:30.979Z,520.15
2022-11-14T02:13:26.057Z,529.23
2022-11-14T02:14:21.055Z,525.89
2022-11-14T02:15:16.133Z,527.56
2022-11-14T02:16:11.155Z,529.23
2022-11-14T02:18:02.268Z,527.56
2022-11-14T02:18:56.346Z,527.56
2022-11-14T02:19:51.362Z,529.23
2022-11-14T02:20:46.383Z,529.23
2022-11-14T02:21:42.013Z,532.19
2022-11-14T02:22:36.491Z,529.23
2022-11-14T02:23:31.499Z,526.31
2022-11-14T02:24:28.541Z,524.65
2022-11-14T02:25:23.564Z,525.07
2022-11-14T02:26:18.566Z,528.81
2022-11-14T02:27:13.619Z,525.48
2022-11-14T02:28:08.663Z,514.14
2022-11-14T02:29:03.667Z,516.12
2022-11-14T02:29:58.715Z,518.13
2022-11-14T02:30:53.868Z,518.94
2022-11-14T02:31:49.613Z,518.53
2022-11-14T02:33:09.345Z,516.12
2022-11-14T02:33:41.087Z,517.73
2022-11-14T02:34:35.315Z,522.60
2022-11-14T02:35:31.232Z,527.56
2022-11-14T02:36:25.815Z,529.23
2022-11-14T02:37:21.069Z,534.32
2022-11-14T02:38:16.480Z,532.61
2022-11-14T02:39:11.575Z,531.34
2022-11-14T02:40:06.484Z,536.04
2022-11-14T02:41:01.580Z,541.70
2022-11-14T02:41:56.612Z,545.69
2022-11-14T02:42:51.625Z,542.14
2022-11-14T02:43:46.622Z,548.83
2022-11-14T02:44:41.801Z,541.26
2022-11-14T02:45:36.810Z,541.70
2022-11-14T02:46:31.851Z,543.47
2022-11-14T02:47:26.881Z,544.35
2022-11-14T02:48:21.910Z,544.35
2022-11-14T02:49:16.941Z,546.14
2022-11-14T02:50:12.021Z,547.93
2022-11-14T02:51:07.030Z,550.19
2022-11-14T02:52:02.380Z,546.14
2022-11-14T02:52:57.119Z,543.91
2022-11-14T02:53:52.248Z,544.80
2022-11-14T02:54:51.653Z,541.70
2022-11-14T02:55:43.315Z,544.80
2022-11-14T02:56:38.648Z,537.34
2022-11-14T02:57:33.099Z,536.90
2022-11-14T02:58:28.485Z,536.90
2022-11-14T02:59:23.415Z,537.77
2022-11-14T03:00:18.712Z,532.61
2022-11-14T03:01:20.658Z,534.75
2022-11-14T03:02:10.198Z,529.65
2022-11-14T03:03:04.277Z,529.23
2022-11-14T03:03:59.486Z,524.24
2022-11-14T03:04:55.341Z,524.24
2022-11-14T03:05:50.518Z,520.15
2022-11-14T03:06:46.601Z,516.12
2022-11-14T03:07:41.600Z,514.93
2022-11-14T03:08:37.053Z,510.98
2022-11-14T03:09:32.670Z,515.73
2022-11-14T03:10:27.841Z,520.15
2022-11-14T03:11:22.989Z,523.01
2022-11-14T03:12:19.571Z,519.34
2022-11-14T03:13:14.751Z,518.53
2022-11-14T03:14:10.761Z,518.53
2022-11-14T03:15:05.889Z,520.96
2022-11-14T03:16:01.098Z,520.96
2022-11-14T03:16:57.230Z,516.92
2022-11-14T03:17:52.145Z,518.94
2022-11-14T03:18:47.995Z,517.73
2022-11-14T03:19:43.137Z,520.15
2022-11-14T03:20:38.476Z,520.15
2022-11-14T03:21:34.186Z,518.53
2022-11-14T03:22:29.437Z,511.38
2022-11-14T03:23:24.564Z,515.73
2022-11-14T03:24:20.981Z,515.33
2022-11-14T03:25:16.164Z,515.73
2022-11-14T03:26:12.395Z,510.98
2022-11-14T03:27:07.261Z,511.38
2022-11-14T03:28:02.425Z,512.16
2022-11-14T03:28:58.320Z,512.95
2022-11-14T03:29:53.519Z,507.48
2022-11-14T03:30:49.362Z,504.03
2022-11-14T03:31:44.827Z,502.89
2022-11-14T03:32:39.861Z,504.79
2022-11-14T03:33:35.600Z,507.48
2022-11-14T03:34:30.902Z,511.38
2022-11-14T03:35:26.188Z,508.64
2022-11-14T03:36:22.627Z,506.71
2022-11-14T03:37:17.791Z,511.77
2022-11-14T03:38:13.688Z,508.64
2022-11-14T03:39:08.940Z,507.10
2022-11-14T03:40:04.132Z,503.65
2022-11-14T03:40:59.728Z,501.76
2022-11-14T03:41:55.047Z,496.89
2022-11-14T03:42:50.756Z,501.76
2022-11-14T03:43:45.896Z,498.38
2022-11-14T03:44:41.316Z,496.89
2022-11-14T03:45:37.058Z,493.58
2022-11-14T03:46:32.396Z,496.16
2022-11-14T03:47:27.584Z,491.40
2022-11-14T03:48:23.834Z,492.86
2022-11-14T03:49:19.149Z,491.77
2022-11-14T03:50:15.161Z,495.79
2022-11-14T03:51:10.143Z,492.49
2022-11-14T03:52:05.328Z,494.32
2022-11-14T03:53:01.174Z,496.89
2022-11-14T03:53:56.376Z,495.05
2022-11-14T03:54:52.213Z,495.05
2022-11-14T03:55:47.537Z,484.27
2022-11-14T03:56:42.731Z,484.62
2022-11-14T03:57:38.463Z,484.62
2022-11-14T03:58:33.653Z,489.60
2022-11-14T03:59:28.958Z,490.32
2022-11-14T04:00:25.233Z,489.24
2022-11-14T04:01:20.464Z,488.88
2022-11-14T04:02:16.191Z,487.10
2022-11-14T04:03:11.340Z,485.68
2022-11-14T04:04:06.498Z,484.97
2022-11-14T04:05:01.677Z,485.32
2022-11-14T04:05:56.979Z,487.45
2022-11-14T04:06:52.913Z,485.32
2022-11-14T04:07:48.081Z,486.39
2022-11-14T04:08:43.218Z,486.03
2022-11-14T04:09:39.712Z,485.68
2022-11-14T04:10:34.916Z,484.97
2022-11-14T04:11:30.639Z,480.77
2022-11-14T04:12:25.827Z,476.99
2022-11-14T04:13:21.023Z,476.65
2022-11-14T04:14:16.745Z,469.27
2022-11-14T04:15:11.912Z,466.64
2022-11-14T04:16:07.905Z,461.48
2022-11-14T04:17:02.958Z,457.99
2022-11-14T04:17:58.142Z,449.95
2022-11-14T04:18:53.943Z,438.71
2022-11-14T04:19:49.123Z,437.27
2022-11-14T04:20:44.527Z,434.14
2022-11-14T04:21:39.684Z,437.27
2022-11-14T04:22:34.836Z,435.55
2022-11-14T04:23:29.878Z,434.70
2022-11-14T04:24:24.948Z,440.74
2022-11-14T04:25:23.500Z,441.03
2022-11-14T04:26:18.687Z,447.24
2022-11-14T04:27:13.987Z,444.55
2022-11-14T04:28:09.146Z,445.15
2022-11-14T04:29:04.199Z,439.57
2022-11-14T04:29:59.188Z,441.90
2022-11-14T04:30:54.232Z,440.45
2022-11-14T04:31:49.248Z,436.70
2022-11-14T04:32:44.326Z,410.86
2022-11-14T04:33:39.378Z,386.57
2022-11-14T04:34:34.432Z,335.96
2022-11-14T04:35:29.555Z,297.03
2022-11-14T04:36:24.599Z,328.56
2022-11-14T04:37:19.617Z,358.34
2022-11-14T04:38:14.679Z,375.14
2022-11-14T04:39:09.762Z,397.40
2022-11-14T04:40:04.787Z,407.35
2022-11-14T04:40:59.806Z,422.85
2022-11-14T04:41:54.873Z,430.49
2022-11-14T04:42:49.932Z,440.45
2022-11-14T04:43:50.499Z,444.55
2022-11-14T04:44:41.085Z,451.17
2022-11-14T04:45:35.079Z,454.87
2022-11-14T04:46:30.124Z,458.93
2022-11-14T04:47:25.149Z,457.05
2022-11-14T04:48:20.143Z,463.40
2022-11-14T04:49:15.238Z,463.40
2022-11-14T04:50:10.252Z,465.02
2022-11-14T04:51:05.267Z,468.94
2022-11-14T04:52:00.307Z,462.44
2022-11-14T04:52:55.338Z,458.30
2022-11-14T04:53:50.484Z,452.40
2022-11-14T04:54:45.781Z,453.94
2022-11-14T04:55:40.808Z,461.80
2022-11-14T04:56:35.996Z,461.16
2022-11-14T04:57:31.174Z,463.72
2022-11-14T04:58:26.313Z,469.60
2022-11-14T04:59:21.522Z,476.31
2022-11-14T05:00:16.883Z,471.59
2022-11-14T05:01:12.226Z,473.60
2022-11-14T05:02:07.261Z,477.33
2022-11-14T05:03:02.413Z,469.93
2022-11-14T05:03:57.587Z,465.34
2022-11-14T05:04:52.861Z,467.62
2022-11-14T05:05:48.334Z,471.59
2022-11-14T05:06:43.434Z,474.28
2022-11-14T05:07:39.380Z,473.94
2022-11-14T05:08:33.884Z,475.97
2022-11-14T05:09:29.400Z,473.27
2022-11-14T05:10:24.562Z,459.89
2022-11-14T05:11:19.751Z,454.25
2022-11-14T05:12:14.896Z,455.80
2022-11-14T05:13:10.083Z,463.08
2022-11-14T05:14:05.352Z,457.99
2022-11-14T05:15:00.504Z,462.76
2022-11-14T05:15:55.745Z,470.26
2022-11-14T05:16:50.887Z,472.26
2022-11-14T05:17:46.190Z,472.26
2022-11-14T05:18:46.769Z,464.05
2022-11-14T05:19:38.145Z,465.99
2022-11-14T05:20:32.213Z,463.72
2022-11-14T05:21:27.485Z,468.61
2022-11-14T05:22:22.676Z,472.26
2022-11-14T05:23:17.845Z,477.67
2022-11-14T05:24:13.207Z,480.08
2022-11-14T05:25:08.250Z,487.45
2022-11-14T05:26:03.391Z,491.04
2022-11-14T05:26:58.642Z,495.42
2022-11-14T05:27:54.249Z,496.52
2022-11-14T05:28:49.402Z,495.79
2022-11-14T05:29:44.620Z,496.89
2022-11-14T05:30:40.050Z,494.68
2022-11-14T05:31:35.085Z,489.24
2022-11-14T05:32:30.260Z,473.60
2022-11-14T05:33:25.600Z,468.28
2022-11-14T05:34:20.871Z,471.59
2022-11-14T05:35:17.300Z,471.93
2022-11-14T05:36:12.438Z,477.33
2022-11-14T05:37:07.867Z,481.47
2022-11-14T05:38:03.072Z,480.08
2022-11-14T05:38:58.398Z,478.02
2022-11-14T05:39:53.567Z,476.65
2022-11-14T05:40:48.716Z,475.97
2022-11-14T05:41:44.010Z,468.28
2022-11-14T05:42:39.256Z,468.28
2022-11-14T05:43:34.420Z,466.64
2022-11-14T05:44:29.601Z,467.95
2022-11-14T05:45:24.806Z,464.69
2022-11-14T05:46:20.085Z,455.18
2022-11-14T05:47:15.510Z,457.67
2022-11-14T05:48:10.625Z,438.99
2022-11-14T05:49:05.775Z,436.98
2022-11-14T05:50:00.946Z,441.90
2022-11-14T05:50:56.233Z,438.99
2022-11-14T05:51:51.408Z,439.28
2022-11-14T05:52:46.611Z,423.65
2022-11-14T05:53:41.760Z,409.35
2022-11-14T05:54:37.201Z,416.25
2022-11-14T05:55:32.245Z,421.25
2022-11-14T05:56:27.543Z,429.38
2022-11-14T05:57:22.737Z,407.35
2022-11-14T05:58:18.063Z,401.46
2022-11-14T05:59:13.223Z,402.19
2022-11-14T06:00:08.440Z,414.44
2022-11-14T06:01:03.607Z,417.29
2022-11-14T06:01:59.044Z,429.38
2022-11-14T06:02:53.927Z,438.99
2022-11-14T06:03:49.250Z,446.34
2022-11-14T06:04:44.435Z,435.27
2022-11-14T06:05:39.727Z,438.42
2022-11-14T06:06:35.047Z,442.20
2022-11-14T06:07:30.477Z,444.26
2022-11-14T06:08:25.709Z,450.56
2022-11-14T06:09:20.799Z,453.32
2022-11-14T06:10:16.045Z,454.25
2022-11-14T06:11:11.412Z,452.09
2022-11-14T06:12:06.526Z,455.18
2022-11-14T06:13:01.738Z,456.42
2022-11-14T06:13:56.985Z,453.01
2022-11-14T06:14:52.520Z,447.24
2022-11-14T06:15:47.601Z,448.44
2022-11-14T06:16:42.869Z,449.35
2022-11-14T06:17:38.720Z,442.78
2022-11-14T06:18:33.502Z,438.13
2022-11-14T06:19:28.681Z,435.27
2022-11-14T06:20:23.910Z,417.55
2022-11-14T06:21:19.150Z,390.88
2022-11-14T06:22:14.375Z,400.98
2022-11-14T06:23:09.771Z,408.10
2022-11-14T06:24:04.887Z,419.92
2022-11-14T06:25:00.217Z,420.98
2022-11-14T06:25:55.378Z,423.12
2022-11-14T06:26:50.806Z,425.28
2022-11-14T06:27:46.088Z,420.98
2022-11-14T06:28:42.263Z,413.16
2022-11-14T06:29:36.596Z,413.67
2022-11-14T06:30:31.903Z,413.92
2022-11-14T06:31:27.354Z,417.03
2022-11-14T06:32:22.380Z,414.70
2022-11-14T06:33:17.655Z,271.92
2022-11-14T06:34:13.381Z,208.51
2022-11-14T06:35:07.700Z,199.38
2022-11-14T06:36:02.748Z,196.75
2022-11-14T06:36:57.812Z,208.77
2022-11-14T06:37:52.911Z,223.11
2022-11-14T06:38:49.207Z,239.04
2022-11-14T06:39:43.113Z,257.62
2022-11-14T06:40:38.162Z,274.65
2022-11-14T06:41:33.252Z,289.69
2022-11-14T06:42:28.394Z,301.12
2022-11-14T06:43:23.378Z,314.39
2022-11-14T06:44:18.442Z,321.16
2022-11-14T06:45:13.761Z,328.56
2022-11-14T06:46:08.640Z,339.44
2022-11-14T06:47:03.652Z,334.25
2022-11-14T06:47:58.751Z,337.34
2022-11-14T06:48:53.677Z,351.43
2022-11-14T06:49:49.995Z,357.17
2022-11-14T06:50:45.337Z,365.53
2022-11-14T06:51:40.807Z,372.58
2022-11-14T06:52:36.049Z,361.50
2022-11-14T06:53:31.407Z,368.81
2022-11-14T06:54:26.814Z,376.00
2022-11-14T06:55:25.309Z,363.91
2022-11-14T06:56:17.823Z,335.27
2022-11-14T06:57:13.189Z,345.15
2022-11-14T06:58:08.360Z,358.34
2022-11-14T06:59:03.685Z,366.34
2022-11-14T06:59:59.076Z,374.71
2022-11-14T07:00:54.905Z,376.86
2022-11-14T07:01:50.015Z,380.61
2022-11-14T07:02:45.304Z,384.12
2022-11-14T07:03:40.713Z,385.23
2022-11-14T07:04:36.950Z,387.02
2022-11-14T07:05:31.824Z,376.00
2022-11-14T07:06:27.447Z,371.32
2022-11-14T07:07:21.964Z,363.10
2022-11-14T07:08:20.866Z,363.91
2022-11-14T07:09:12.212Z,361.90
2022-11-14T07:10:07.197Z,370.48
2022-11-14T07:11:02.354Z,377.73
2022-11-14T07:11:57.379Z,385.45
2022-11-14T07:12:53.746Z,387.02
2022-11-14T07:13:49.146Z,386.79
2022-11-14T07:14:44.698Z,388.14
2022-11-14T07:15:41.828Z,389.28
2022-11-14T07:16:35.637Z,388.14
2022-11-14T07:17:31.670Z,385.90
2022-11-14T07:18:26.650Z,388.37
2022-11-14T07:19:24.824Z,391.56
2022-11-14T07:20:17.799Z,387.92
2022-11-14T07:21:13.193Z,384.12
2022-11-14T07:22:08.632Z,387.47
2022-11-14T07:23:04.201Z,390.19
2022-11-14T07:23:59.688Z,395.51
2022-11-14T07:24:55.144Z,389.51
2022-11-14T07:25:50.782Z,394.11
2022-11-14T07:26:46.577Z,394.81
2022-11-14T07:27:40.945Z,404.14
2022-11-14T07:28:36.026Z,409.60
2022-11-14T07:29:31.080Z,406.61
2022-11-14T07:30:26.088Z,404.14
2022-11-14T07:31:21.153Z,405.62
2022-11-14T07:32:16.210Z,410.11
2022-11-14T07:33:11.254Z,412.39
2022-11-14T07:34:06.318Z,411.62
2022-11-14T07:35:02.627Z,412.39
2022-11-14T07:35:56.499Z,409.60
2022-11-14T07:36:51.526Z,403.41
2022-11-14T07:37:50.756Z,398.35
2022-11-14T07:38:45.782Z,400.50
2022-11-14T07:39:40.940Z,392.72
2022-11-14T07:40:35.964Z,392.72
2022-11-14T07:41:31.017Z,393.64
2022-11-14T07:42:26.203Z,394.11
2022-11-14T07:43:21.262Z,393.41
2022-11-14T07:44:16.338Z,389.28
2022-11-14T07:45:11.420Z,388.82
2022-11-14T07:46:06.452Z,382.14
2022-11-14T07:47:01.781Z,369.64
2022-11-14T07:47:57.231Z,364.71
2022-11-14T07:48:55.915Z,356.01
2022-11-14T07:49:51.555Z,352.57
2022-11-14T07:50:46.907Z,354.85
2022-11-14T07:51:42.338Z,352.95
2022-11-14T07:52:37.926Z,351.43
2022-11-14T07:53:33.277Z,350.31
2022-11-14T07:54:28.786Z,347.34
2022-11-14T07:55:24.300Z,345.88
2022-11-14T07:56:19.757Z,343.34
2022-11-14T07:57:15.172Z,343.70
2022-11-14T07:58:11.261Z,338.04
2022-11-14T07:59:06.233Z,332.22
2022-11-14T08:00:01.709Z,326.92
2022-11-14T08:00:57.228Z,325.95
2022-11-14T08:01:52.676Z,325.30
2022-11-14T08:02:47.745Z,321.48
2022-11-14T08:03:46.136Z,318.05
2022-11-14T08:04:37.867Z,318.36
2022-11-14T08:05:32.955Z,316.52
2022-11-14T08:06:27.996Z,315.30
2022-11-14T08:07:23.053Z,314.69
2022-11-14T08:08:18.023Z,312.00
2022-11-14T08:09:13.047Z,310.23
2022-11-14T08:10:08.116Z,309.06
2022-11-14T08:11:03.200Z,307.61
2022-11-14T08:12:00.384Z,303.91
2022-11-14T08:13:10.797Z,303.91
2022-11-14T08:13:52.273Z,309.64
2022-11-14T08:14:47.407Z,315.00
2022-11-14T08:15:42.156Z,316.52
2022-11-14T08:16:37.768Z,322.42
2022-11-14T08:17:33.190Z,323.06
2022-11-14T08:18:28.898Z,324.66
2022-11-14T08:19:24.084Z,320.85
2022-11-14T08:20:19.399Z,319.29
2022-11-14T08:21:15.137Z,313.79
2022-11-14T08:22:11.050Z,309.64
2022-11-14T08:23:05.792Z,307.90
2022-11-14T08:24:01.267Z,307.90
2022-11-14T08:24:56.727Z,306.46
2022-11-14T08:25:51.817Z,303.07
2022-11-14T08:26:46.791Z,304.19
2022-11-14T08:27:41.857Z,302.79
2022-11-14T08:28:36.881Z,303.63
2022-11-14T08:29:31.946Z,303.35
2022-11-14T08:30:27.029Z,302.23
2022-11-14T08:31:22.075Z,304.76
2022-11-14T08:32:17.152Z,307.61
2022-11-14T08:33:12.185Z,308.48
2022-11-14T08:34:07.234Z,308.48
2022-11-14T08:35:04.165Z,308.19
2022-11-14T08:35:59.233Z,310.23
2022-11-14T08:36:54.287Z,313.49
2022-11-14T08:37:49.340Z,313.79
2022-11-14T08:38:45.297Z,312.89
2022-11-14T08:39:41.141Z,315.30
2022-11-14T08:40:37.012Z,317.43
2022-11-14T08:41:31.483Z,323.70
2022-11-14T08:42:28.148Z,331.55
2022-11-14T08:43:23.569Z,336.65
2022-11-14T08:44:19.140Z,343.70
2022-11-14T08:45:14.484Z,348.82
2022-11-14T08:46:09.930Z,351.81
2022-11-14T08:47:05.401Z,351.81
2022-11-14T08:48:00.813Z,353.71
2022-11-14T08:48:55.858Z,350.31
2022-11-14T08:49:50.944Z,352.19
2022-11-14T08:50:46.021Z,352.95
2022-11-14T08:51:41.194Z,353.33
2022-11-14T08:52:36.288Z,355.24
2022-11-14T08:53:31.321Z,351.06
2022-11-14T08:54:26.446Z,344.79
2022-11-14T08:55:21.504Z,341.20
2022-11-14T08:56:16.605Z,339.44
2022-11-14T08:57:11.707Z,335.96
2022-11-14T08:58:06.714Z,332.22
2022-11-14T08:59:01.753Z,325.30
2022-11-14T08:59:56.749Z,322.11
2022-11-14T09:00:51.852Z,322.42
2022-11-14T09:01:47.363Z,319.29
2022-11-14T09:02:42.729Z,319.29
2022-11-14T09:03:38.421Z,314.39
2022-11-14T09:04:33.698Z,307.61
2022-11-14T09:05:29.377Z,296.76
2022-11-14T09:06:24.789Z,283.43
2022-11-14T09:07:19.934Z,276.51
2022-11-14T09:08:14.988Z,278.15
2022-11-14T09:09:10.573Z,280.77
2022-11-14T09:10:05.128Z,282.46
2022-11-14T09:11:04.817Z,274.65
2022-11-14T09:11:56.330Z,273.28
2022-11-14T09:12:50.438Z,273.05
2022-11-14T09:13:47.577Z,269.47
2022-11-14T09:14:42.658Z,271.25
2022-11-14T09:15:37.741Z,271.70
2022-11-14T09:16:32.924Z,268.80
2022-11-14T09:17:27.888Z,270.80
2022-11-14T09:18:22.962Z,270.35
2022-11-14T09:19:18.261Z,269.91
2022-11-14T09:20:13.766Z,269.02
2022-11-14T09:21:09.188Z,270.80
2022-11-14T09:22:04.778Z,269.47
2022-11-14T09:23:00.232Z,270.13
2022-11-14T09:24:00.518Z,266.84
2022-11-14T09:24:52.164Z,265.54
2022-11-14T09:25:46.527Z,263.41
2022-11-14T09:26:42.220Z,263.41
2022-11-14T09:27:37.560Z,265.97
2022-11-14T09:28:32.986Z,267.93
2022-11-14T09:29:28.440Z,266.62
2022-11-14T09:30:23.518Z,260.48
2022-11-14T09:31:18.581Z,255.61
2022-11-14T09:32:13.630Z,255.81
2022-11-14T09:33:11.955Z,252.27
2022-11-14T09:34:03.949Z,249.02
2022-11-14T09:34:58.881Z,246.77
2022-11-14T09:35:53.965Z,243.83
2022-11-14T09:36:49.052Z,241.15
2022-11-14T09:37:44.307Z,240.26
2022-11-14T09:38:39.404Z,239.74
2022-11-14T09:39:34.481Z,236.80
2022-11-14T09:40:29.613Z,238.17
2022-11-14T09:41:24.601Z,233.43
2022-11-14T09:42:19.704Z,229.51
2022-11-14T09:43:16.783Z,213.39
2022-11-14T09:44:16.402Z,201.96
2022-11-14T09:45:09.044Z,204.10
2022-11-14T09:46:03.540Z,205.63
2022-11-14T09:46:58.579Z,202.21
2022-11-14T09:47:54.018Z,206.28
2022-11-14T09:48:49.393Z,209.30
2022-11-14T09:49:44.773Z,212.15
2022-11-14T09:50:40.266Z,210.24
2022-11-14T09:51:35.944Z,208.77
2022-11-14T09:52:31.495Z,209.04
2022-11-14T09:53:26.825Z,211.05
2022-11-14T09:54:22.501Z,213.25
2022-11-14T09:55:18.627Z,211.19
2022-11-14T09:56:13.406Z,212.15
2022-11-14T09:57:08.446Z,209.97
2022-11-14T09:58:04.311Z,207.85
2022-11-14T09:58:58.534Z,208.24
2022-11-14T09:59:53.535Z,211.19
2022-11-14T10:00:48.648Z,210.78
2022-11-14T10:01:43.825Z,211.46
2022-11-14T10:02:38.789Z,214.22
2022-11-14T10:03:34.016Z,214.22
2022-11-14T10:04:28.998Z,215.91
2022-11-14T10:05:24.856Z,219.97
2022-11-14T10:06:21.137Z,222.05
2022-11-14T10:07:16.336Z,222.05
2022-11-14T10:08:11.365Z,221.90
2022-11-14T10:09:06.466Z,216.06
2022-11-14T10:10:01.951Z,210.65
2022-11-14T10:10:57.536Z,208.77
2022-11-14T10:11:52.958Z,207.98
2022-11-14T10:12:48.604Z,209.84
2022-11-14T10:13:43.917Z,208.77
2022-11-14T10:14:39.551Z,205.12
2022-11-14T10:15:34.907Z,199.38
2022-11-14T10:16:30.552Z,198.30
2022-11-14T10:17:25.953Z,205.37
2022-11-14T10:18:21.442Z,209.57
2022-11-14T10:19:17.913Z,215.63
2022-11-14T10:20:12.377Z,220.86
2022-11-14T10:21:07.780Z,223.11
2022-11-14T10:22:03.233Z,220.41
2022-11-14T10:23:01.371Z,218.79
2022-11-14T10:23:53.559Z,216.06
2022-11-14T10:24:48.462Z,214.93
2022-11-14T10:25:44.367Z,216.06
2022-11-14T10:26:38.736Z,216.06
2022-11-14T10:27:33.725Z,215.49
2022-11-14T10:28:29.085Z,217.49
2022-11-14T10:29:25.787Z,218.50
2022-11-14T10:30:20.788Z,219.23
2022-11-14T10:31:15.808Z,217.63
2022-11-14T10:32:10.867Z,209.44
2022-11-14T10:33:06.835Z,206.02
2022-11-14T10:34:02.398Z,207.19
2022-11-14T10:34:57.814Z,210.24
2022-11-14T10:35:53.310Z,214.64
2022-11-14T10:36:49.027Z,215.63
2022-11-14T10:37:44.486Z,220.56
2022-11-14T10:38:39.899Z,223.87
2022-11-14T10:39:35.478Z,229.35
2022-11-14T10:40:32.500Z,234.60
2022-11-14T10:41:55.031Z,238.52
2022-11-14T10:42:24.404Z,239.04
2022-11-14T10:43:19.334Z,239.74
2022-11-14T10:44:14.781Z,239.74
2022-11-14T10:45:10.332Z,239.91
2022-11-14T10:46:05.289Z,240.79
2022-11-14T10:47:00.323Z,242.75
2022-11-14T10:47:55.408Z,244.93
2022-11-14T10:48:50.411Z,245.48
2022-11-14T10:49:45.462Z,241.68
2022-11-14T10:50:40.550Z,244.20
2022-11-14T10:51:36.639Z,249.96
2022-11-14T10:52:31.321Z,256.41
2022-11-14T10:53:26.305Z,258.63
2022-11-14T10:54:21.387Z,257.82
2022-11-14T10:55:16.467Z,261.73
2022-11-14T10:56:11.523Z,264.05
2022-11-14T10:57:06.693Z,267.49
2022-11-14T10:58:01.800Z,262.78
2022-11-14T10:58:56.903Z,265.97
2022-11-14T10:59:52.001Z,260.69
2022-11-14T11:00:47.158Z,254.82
2022-11-14T11:01:42.138Z,249.96
2022-11-14T11:02:37.412Z,249.77
2022-11-14T11:03:32.302Z,256.61
2022-11-14T11:04:27.453Z,252.66
2022-11-14T11:05:22.410Z,252.08
2022-11-14T11:06:17.423Z,254.82
2022-11-14T11:07:13.488Z,256.61
2022-11-14T11:08:41.465Z,258.02
2022-11-14T11:09:08.488Z,256.61
2022-11-14T11:10:02.872Z,253.05
2022-11-14T11:10:58.452Z,253.44
2022-11-14T11:11:54.244Z,257.62
2022-11-14T11:12:49.334Z,263.62
2022-11-14T11:13:44.183Z,265.11
2022-11-14T11:14:39.241Z,264.68
2022-11-14T11:15:34.261Z,262.99
2022-11-14T11:16:29.341Z,261.94
2022-11-14T11:17:26.835Z,256.61
2022-11-14T11:18:20.481Z,252.66
2022-11-14T11:19:14.610Z,250.73
2022-11-14T11:20:09.626Z,248.45
2022-11-14T11:21:04.693Z,251.11
2022-11-14T11:21:59.701Z,248.83
2022-11-14T11:22:57.590Z,254.62
2022-11-14T11:23:50.368Z,235.44
2022-11-14T11:24:45.881Z,227.60
2022-11-14T11:25:41.586Z,231.29
2022-11-14T11:26:36.945Z,229.51
2022-11-14T11:27:32.854Z,225.41
2022-11-14T11:28:27.460Z,223.26
2022-11-14T11:29:22.527Z,221.90
2022-11-14T11:30:17.565Z,228.23
2022-11-14T11:31:13.965Z,233.59